createdAt,value
2019-02-14T00:00:45.524Z,4.90
2019-02-14T00:05:50.423Z,4.70
2019-02-14T00:26:07.479Z,4.20
2019-02-14T00:36:16.304Z,4.20
2019-02-14T01:06:41.947Z,4.20
2019-02-14T01:11:50.070Z,4.10
2019-02-14T01:16:54.698Z,4.00
2019-02-14T01:22:01.797Z,4.00
2019-02-14T01:47:26.738Z,4.00
2019-02-14T01:57:35.633Z,4.20
2019-02-14T02:07:44.481Z,4.00
2019-02-14T02:28:02.838Z,4.00
2019-02-14T02:33:07.567Z,3.90
2019-02-14T02:38:12.339Z,3.90
2019-02-14T02:48:21.106Z,3.60
2019-02-14T02:53:26.970Z,3.50
2019-02-14T02:58:32.004Z,3.40
2019-02-14T03:03:36.664Z,3.30
2019-02-14T03:13:46.670Z,3.60
2019-02-14T03:28:59.933Z,3.20
2019-02-14T03:34:04.768Z,3.30
2019-02-14T03:39:09.550Z,3.10
2019-02-14T03:49:20.837Z,3.40
2019-02-14T03:54:25.814Z,3.30
2019-02-14T03:59:30.597Z,3.30
2019-02-14T04:04:35.432Z,3.10
2019-02-14T04:09:40.089Z,3.00
2019-02-14T04:14:47.730Z,2.80
2019-02-14T04:19:52.410Z,3.10
2019-02-14T04:35:06.187Z,2.80
2019-02-14T04:40:12.020Z,3.20
2019-02-14T04:45:16.697Z,3.50
2019-02-14T04:50:21.580Z,4.10
2019-02-14T05:00:30.454Z,4.70
2019-02-14T05:10:39.566Z,3.80
2019-02-14T05:15:47.762Z,3.60
2019-02-14T05:25:59.176Z,3.30
2019-02-14T05:31:17.691Z,3.50
2019-02-14T05:41:28.831Z,4.40
2019-02-14T05:56:44.536Z,4.50
2019-02-14T06:22:17.646Z,3.40
2019-02-14T06:32:26.763Z,2.80
2019-02-14T06:37:31.520Z,2.80
2019-02-14T06:42:36.318Z,3.10
2019-02-14T06:47:44.057Z,3.10
2019-02-14T06:52:48.899Z,3.00
2019-02-14T06:57:54.005Z,3.20
2019-02-14T07:03:01.846Z,3.80
2019-02-14T07:13:19.709Z,2.90
2019-02-14T07:23:37.964Z,4.30
2019-02-14T07:28:45.312Z,4.30
2019-02-14T07:39:05.456Z,4.30
2019-02-14T08:04:32.176Z,6.20
2019-02-14T08:09:37.189Z,5.80
2019-02-14T08:14:41.791Z,5.50
2019-02-14T08:19:47.285Z,5.30
2019-02-14T08:35:00.332Z,7.80
2019-02-14T08:40:08.348Z,7.90
2019-02-14T08:45:13.472Z,8.00
2019-02-14T08:50:18.189Z,8.30
2019-02-14T08:55:31.693Z,9.60
2019-02-14T09:00:36.652Z,9.40
2019-02-14T09:05:41.622Z,8.90
2019-02-14T09:15:50.497Z,9.30
2019-02-14T09:36:10.345Z,12.60
2019-02-14T09:41:15.225Z,12.80
2019-02-14T09:51:25.932Z,15.30
2019-02-14T09:56:31.084Z,12.20
2019-02-14T10:11:46.471Z,14.30
2019-02-14T10:16:51.268Z,14.30
2019-02-14T10:21:56.337Z,16.50
2019-02-14T10:27:01.460Z,17.80
2019-02-14T10:32:06.714Z,16.70
2019-02-14T10:37:21.656Z,15.10
2019-02-14T10:42:36.999Z,16.00
2019-02-14T10:47:41.816Z,18.50
2019-02-14T10:52:47.711Z,18.10
2019-02-14T10:57:52.712Z,18.70
2019-02-14T11:08:31.713Z,20.70
2019-02-14T11:13:36.223Z,21.20
2019-02-14T11:18:44.381Z,19.30
2019-02-14T11:23:50.247Z,18.70
2019-02-14T11:28:55.315Z,18.20
2019-02-14T11:34:00.202Z,18.00
2019-02-14T11:39:09.049Z,17.70
2019-02-14T11:44:13.999Z,18.60
2019-02-14T11:49:18.659Z,16.90
2019-02-14T11:54:23.885Z,18.40
2019-02-14T11:59:28.618Z,19.00
2019-02-14T12:04:33.621Z,18.10
2019-02-14T12:09:38.745Z,18.60
2019-02-14T12:14:43.815Z,17.50
2019-02-14T12:19:49.020Z,17.90
2019-02-14T12:24:53.896Z,16.40
2019-02-14T12:29:58.569Z,18.30
2019-02-14T12:35:04.989Z,18.50
2019-02-14T12:40:10.689Z,19.30
2019-02-14T12:45:20.498Z,21.20
2019-02-14T12:50:23.764Z,19.90
2019-02-14T12:55:28.779Z,21.50
2019-02-14T13:00:33.544Z,22.10
2019-02-14T13:05:38.409Z,20.70
2019-02-14T13:10:43.422Z,19.60
2019-02-14T13:15:48.362Z,20.20
2019-02-14T13:20:57.018Z,19.30
2019-02-14T13:26:01.859Z,19.90
2019-02-14T13:31:06.813Z,20.90
2019-02-14T13:36:11.758Z,21.20
2019-02-14T13:41:16.742Z,21.40
2019-02-14T13:46:21.506Z,22.20
2019-02-14T13:51:26.416Z,21.90
2019-02-14T13:56:31.187Z,21.90
2019-02-14T14:01:36.019Z,21.90
2019-02-14T14:06:40.779Z,22.00
2019-02-14T14:12:09.188Z,21.90
2019-02-14T14:17:14.026Z,20.30
2019-02-14T14:22:18.859Z,20.70
2019-02-14T14:27:24.273Z,21.40
2019-02-14T14:32:29.127Z,20.80
2019-02-14T14:37:35.120Z,20.80
2019-02-14T14:43:07.884Z,20.40
2019-02-14T14:48:19.669Z,19.70
2019-02-14T14:53:20.098Z,20.00
2019-02-14T14:58:25.042Z,19.40
2019-02-14T15:03:40.704Z,21.20
2019-02-14T15:08:46.802Z,22.00
2019-02-14T15:13:51.664Z,23.60
2019-02-14T15:18:56.437Z,22.00
2019-02-14T15:24:09.640Z,22.10
2019-02-14T20:55:28.725Z,8.50
2019-02-14T21:05:40.245Z,8.20
2019-02-14T21:10:45.096Z,8.20
2019-02-14T21:15:49.908Z,8.20
2019-02-14T21:41:44.368Z,8.30
2019-02-14T21:57:11.071Z,8.30
2019-02-14T22:22:49.851Z,8.20
2019-02-14T22:27:56.729Z,8.10
2019-02-14T22:33:02.312Z,8.10
2019-02-14T22:38:08.279Z,8.20
2019-02-14T22:48:28.671Z,8.40
2019-02-14T23:04:01.478Z,8.20
2019-02-14T23:19:29.985Z,8.60
2019-02-14T23:49:58.134Z,8.70
